Terminal Aerodrome Forecast
Issued by NWS

Home | Current Version | Previous Version | Text Only | Print | Product List | Glossary On
Versions: 1 2 3 4 5 6 7 8 9 10 11 12 13
000
FTUS42 TJSJ 302339
TAFNCM
TAF
TNCM 302339Z 3100/3124 08007KT P6SM FEW021
     FM311300 12013KT P6SM FEW019
     FM312300 09008KT P6SM VCSH SCT018 SCT040=

USA.gov is the U.S. government's official web portal to all federal, state and local government web resources and services.